createdAt,value
2024-02-06T00:00:44.700Z,9.30
2024-02-06T00:03:15.122Z,9.30
2024-02-06T00:05:47.736Z,9.40
2024-02-06T00:08:22.942Z,9.30
2024-02-06T00:10:55.836Z,9.40
2024-02-06T00:13:26.249Z,9.40
2024-02-06T00:15:56.612Z,9.30
2024-02-06T00:18:26.916Z,9.30
2024-02-06T00:20:59.840Z,9.30
2024-02-06T00:23:39.017Z,9.40
2024-02-06T00:28:58.247Z,9.40
2024-02-06T00:31:28.987Z,9.40
2024-02-06T00:34:05.650Z,9.50
2024-02-06T00:36:36.038Z,9.50
2024-02-06T00:39:11.963Z,9.50
2024-02-06T00:41:50.385Z,9.50
2024-02-06T00:44:20.940Z,9.50
2024-02-06T00:46:53.631Z,9.60
2024-02-06T00:49:34.133Z,9.60
2024-02-06T00:52:04.758Z,9.60
2024-02-06T00:54:38.440Z,9.60
2024-02-06T00:57:11.934Z,9.60
2024-02-06T00:59:48.108Z,9.60
2024-02-06T01:02:30.492Z,9.60
2024-02-06T01:05:03.390Z,9.50
2024-02-06T01:07:39.041Z,9.50
2024-02-06T01:10:15.004Z,9.50
2024-02-06T01:12:45.328Z,9.40
2024-02-06T01:15:15.688Z,9.40
2024-02-06T01:18:01.407Z,9.40
2024-02-06T01:20:34.508Z,9.40
2024-02-06T01:23:04.749Z,9.50
2024-02-06T01:25:37.710Z,9.50
2024-02-06T01:28:08.730Z,9.60
2024-02-06T01:30:39.075Z,9.60
2024-02-06T01:33:12.197Z,9.60
2024-02-06T01:35:42.607Z,9.60
2024-02-06T01:38:21.829Z,9.60
2024-02-06T01:40:57.145Z,9.60
2024-02-06T01:43:27.431Z,9.60
2024-02-06T01:45:59.195Z,9.60
2024-02-06T01:48:30.519Z,9.70
2024-02-06T01:51:03.911Z,9.80
2024-02-06T01:53:37.767Z,9.80
2024-02-06T01:56:11.537Z,9.70
2024-02-06T01:58:49.914Z,9.80
2024-02-06T02:01:21.365Z,9.80
2024-02-06T02:03:53.262Z,9.80
2024-02-06T02:06:25.638Z,9.80
2024-02-06T02:08:56.086Z,9.70
2024-02-06T02:11:29.156Z,9.80
2024-02-06T02:14:02.297Z,9.70
2024-02-06T02:16:32.766Z,9.70
2024-02-06T02:19:03.177Z,9.70
2024-02-06T02:21:36.359Z,9.70
2024-02-06T02:24:08.297Z,9.70
2024-02-06T02:26:42.433Z,9.70
2024-02-06T02:29:16.047Z,9.70
2024-02-06T02:31:51.795Z,9.70
2024-02-06T02:34:23.316Z,9.70
2024-02-06T02:37:00.955Z,9.60
2024-02-06T02:39:31.498Z,9.60
2024-02-06T02:42:04.669Z,9.70
2024-02-06T02:44:34.987Z,9.70
2024-02-06T02:47:05.247Z,9.70
2024-02-06T02:49:35.559Z,9.80
2024-02-06T02:52:08.589Z,9.80
2024-02-06T02:54:41.700Z,9.70
2024-02-06T02:57:11.974Z,9.80
2024-02-06T02:59:42.209Z,9.80
2024-02-06T03:02:12.572Z,9.80
2024-02-06T03:04:43.022Z,9.80
2024-02-06T03:07:15.870Z,9.80
2024-02-06T03:09:46.255Z,9.80
2024-02-06T03:12:22.131Z,9.90
2024-02-06T03:14:52.567Z,9.90
2024-02-06T03:17:22.797Z,9.80
2024-02-06T03:19:53.106Z,9.80
2024-02-06T03:22:30.722Z,9.80
2024-02-06T03:25:01.169Z,9.80
2024-02-06T03:27:31.711Z,9.80
2024-02-06T03:30:03.738Z,9.80
2024-02-06T03:32:34.084Z,9.90
2024-02-06T03:35:04.728Z,10.00
2024-02-06T03:37:47.817Z,10.00
2024-02-06T03:40:18.736Z,10.00
2024-02-06T03:42:49.148Z,9.90
2024-02-06T03:45:19.600Z,9.90
2024-02-06T03:47:52.491Z,9.80
2024-02-06T03:50:22.804Z,9.80
2024-02-06T03:52:58.035Z,9.90
2024-02-06T03:55:31.287Z,9.90
2024-02-06T03:58:01.682Z,9.90
2024-02-06T04:00:35.273Z,9.90
2024-02-06T04:03:05.776Z,10.00
2024-02-06T04:05:43.611Z,10.00
2024-02-06T04:08:16.784Z,10.00
2024-02-06T04:10:49.551Z,10.00
2024-02-06T04:13:19.981Z,10.00
2024-02-06T04:15:53.169Z,10.00
2024-02-06T04:18:23.588Z,10.10
2024-02-06T04:21:08.865Z,10.00
2024-02-06T04:23:47.114Z,10.10
2024-02-06T04:26:17.399Z,10.10
2024-02-06T04:28:50.641Z,10.10
2024-02-06T04:31:23.719Z,10.10
2024-02-06T04:33:54.328Z,10.10
2024-02-06T04:36:27.781Z,10.10
2024-02-06T04:39:05.469Z,10.10
2024-02-06T04:41:36.053Z,10.10
2024-02-06T04:44:12.139Z,10.10
2024-02-06T04:46:42.493Z,10.10
2024-02-06T04:49:15.714Z,10.10
2024-02-06T04:51:46.070Z,10.10
2024-02-06T04:54:22.097Z,10.10
2024-02-06T04:56:52.424Z,10.10
2024-02-06T04:59:31.944Z,10.10
2024-02-06T05:02:07.075Z,10.10
2024-02-06T05:04:45.047Z,10.10
2024-02-06T05:07:15.496Z,10.10
2024-02-06T05:09:53.706Z,10.10
2024-02-06T05:12:24.115Z,10.00
2024-02-06T05:14:57.419Z,10.00
2024-02-06T05:17:30.882Z,10.00
2024-02-06T05:20:06.256Z,10.10
2024-02-06T05:22:36.669Z,10.00
2024-02-06T05:25:10.481Z,10.00
2024-02-06T05:27:41.247Z,10.10
2024-02-06T05:30:16.191Z,10.10
2024-02-06T05:32:46.498Z,10.10
2024-02-06T05:35:19.426Z,10.00
2024-02-06T05:37:50.492Z,10.00
2024-02-06T05:40:23.995Z,10.00
2024-02-06T05:42:57.464Z,10.00
2024-02-06T05:45:28.313Z,10.10
2024-02-06T05:48:01.774Z,10.10
2024-02-06T05:50:32.312Z,10.10
2024-02-06T05:53:04.981Z,10.00
2024-02-06T05:55:37.815Z,10.10
2024-02-06T05:58:13.450Z,10.00
2024-02-06T06:00:43.766Z,10.10
2024-02-06T06:03:14.105Z,10.10
2024-02-06T06:05:44.540Z,10.00
2024-02-06T06:08:17.889Z,10.00
2024-02-06T06:10:53.613Z,10.10
2024-02-06T06:13:23.999Z,10.10
2024-02-06T06:15:55.071Z,10.00
2024-02-06T06:18:25.486Z,10.10
2024-02-06T06:20:55.864Z,10.10
2024-02-06T06:23:26.094Z,10.10
2024-02-06T06:25:59.024Z,10.10
2024-02-06T06:28:32.698Z,10.10
2024-02-06T06:31:03.071Z,10.10
2024-02-06T06:33:44.400Z,10.10
2024-02-06T06:36:17.099Z,10.20
2024-02-06T06:38:47.370Z,10.20
2024-02-06T06:41:20.500Z,10.20
2024-02-06T06:43:50.820Z,10.20
2024-02-06T06:46:25.694Z,10.30
2024-02-06T06:48:56.059Z,10.20
2024-02-06T06:51:29.121Z,10.30
2024-02-06T06:53:59.405Z,10.30
2024-02-06T06:56:32.221Z,10.20
2024-02-06T06:59:02.493Z,10.20
2024-02-06T07:01:32.893Z,10.30
2024-02-06T07:04:03.323Z,10.30
2024-02-06T07:06:38.365Z,10.20
2024-02-06T07:09:09.368Z,10.30
2024-02-06T07:11:45.257Z,10.30
2024-02-06T07:14:15.907Z,10.30
2024-02-06T07:16:49.433Z,10.30
2024-02-06T07:19:21.617Z,10.20
2024-02-06T07:21:58.991Z,10.10
2024-02-06T07:24:29.551Z,10.10
2024-02-06T07:27:05.246Z,10.10
2024-02-06T07:29:36.458Z,10.10
2024-02-06T07:32:07.856Z,10.20
2024-02-06T07:34:38.658Z,10.20
2024-02-06T07:37:08.994Z,10.20
2024-02-06T07:39:39.887Z,10.20
2024-02-06T07:42:12.912Z,10.20
2024-02-06T07:44:43.420Z,10.20
2024-02-06T07:47:20.975Z,10.20
2024-02-06T07:49:56.925Z,10.20
2024-02-06T07:52:27.685Z,10.20
2024-02-06T07:54:58.054Z,10.20
2024-02-06T07:57:33.995Z,10.20
2024-02-06T08:00:12.042Z,10.20
2024-02-06T08:02:42.344Z,10.20
2024-02-06T08:05:13.659Z,10.10
2024-02-06T08:07:47.134Z,10.20
2024-02-06T08:10:21.647Z,10.30
2024-02-06T08:13:09.220Z,10.30
2024-02-06T08:15:39.794Z,10.30
2024-02-06T08:18:10.713Z,10.40
2024-02-06T08:20:41.436Z,10.30
2024-02-06T08:23:15.527Z,10.40
2024-02-06T08:25:48.907Z,10.40
2024-02-06T08:28:21.834Z,10.40
2024-02-06T08:31:00.520Z,10.40
2024-02-06T08:33:33.269Z,10.40
2024-02-06T08:36:07.034Z,10.40
2024-02-06T08:38:37.597Z,10.40
2024-02-06T08:41:08.319Z,10.40
2024-02-06T08:43:52.634Z,10.40
2024-02-06T08:46:29.842Z,10.50
2024-02-06T08:49:00.884Z,10.50
2024-02-06T08:51:31.967Z,10.50
2024-02-06T08:54:02.197Z,10.50
2024-02-06T08:56:47.729Z,10.50
2024-02-06T08:59:20.694Z,10.50
2024-02-06T09:01:58.848Z,10.60
2024-02-06T09:04:32.351Z,10.60
2024-02-06T09:07:03.085Z,10.70
2024-02-06T09:09:33.397Z,10.80
2024-02-06T09:12:11.231Z,10.80
2024-02-06T09:14:44.402Z,10.80
2024-02-06T09:17:17.545Z,10.80
2024-02-06T09:19:47.854Z,10.80
2024-02-06T09:22:18.234Z,10.80
2024-02-06T09:24:48.585Z,10.70
2024-02-06T09:27:19.061Z,10.70
2024-02-06T09:29:51.909Z,10.70
2024-02-06T09:32:22.220Z,10.70
2024-02-06T09:35:09.448Z,10.70
2024-02-06T09:37:39.888Z,10.70
2024-02-06T09:40:12.394Z,10.70
2024-02-06T09:42:46.812Z,10.70
2024-02-06T09:45:27.620Z,10.70
2024-02-06T09:48:25.814Z,10.80
2024-02-06T09:50:57.366Z,10.80
2024-02-06T09:53:32.253Z,10.90
2024-02-06T09:56:06.776Z,10.80
2024-02-06T09:58:39.964Z,10.80
2024-02-06T10:01:28.970Z,10.70
2024-02-06T10:04:02.093Z,10.80
2024-02-06T10:06:35.165Z,10.70
2024-02-06T10:09:07.297Z,10.70
2024-02-06T10:11:44.159Z,10.80
2024-02-06T10:14:16.920Z,10.80
2024-02-06T10:16:49.967Z,10.80
2024-02-06T10:19:35.482Z,10.80
2024-02-06T10:22:06.372Z,10.80
2024-02-06T10:24:39.029Z,10.90
2024-02-06T10:27:09.615Z,10.90
2024-02-06T10:29:42.604Z,10.90
2024-02-06T10:32:24.147Z,10.90
2024-02-06T10:35:04.691Z,10.90
2024-02-06T10:37:40.055Z,10.90
2024-02-06T10:40:11.766Z,10.80
2024-02-06T10:45:22.925Z,10.90
2024-02-06T10:48:03.630Z,11.00
2024-02-06T10:50:35.582Z,11.00
2024-02-06T10:53:07.511Z,11.00
2024-02-06T10:55:39.645Z,11.00
2024-02-06T10:58:12.036Z,11.00
2024-02-06T11:00:56.549Z,11.00
2024-02-06T11:03:30.186Z,11.20
2024-02-06T11:06:27.125Z,11.40
2024-02-06T11:08:59.980Z,11.60
2024-02-06T11:11:30.586Z,11.80
2024-02-06T11:14:01.391Z,11.80
2024-02-06T11:16:38.652Z,11.90
2024-02-06T11:19:21.611Z,11.90
2024-02-06T11:22:02.846Z,11.90
2024-02-06T11:24:41.147Z,12.00
2024-02-06T11:27:13.651Z,12.00
2024-02-06T11:29:56.691Z,12.00
2024-02-06T11:32:29.870Z,12.00
2024-02-06T11:35:03.269Z,12.10
2024-02-06T11:37:36.923Z,12.10
2024-02-06T11:40:12.412Z,12.00
2024-02-06T11:42:43.887Z,12.10
2024-02-06T11:45:24.416Z,12.00
2024-02-06T11:47:57.726Z,11.90
2024-02-06T11:50:37.258Z,11.80
2024-02-06T11:53:10.741Z,11.70
2024-02-06T11:55:43.796Z,11.80
2024-02-06T11:58:16.128Z,11.70
2024-02-06T12:00:49.010Z,11.70
2024-02-06T12:03:19.318Z,11.60
2024-02-06T12:06:09.144Z,11.70
2024-02-06T12:08:39.684Z,11.60
2024-02-06T12:11:16.084Z,11.60
2024-02-06T12:13:47.593Z,11.60
2024-02-06T12:16:22.190Z,11.70
2024-02-06T12:18:56.040Z,11.80
2024-02-06T12:21:35.158Z,12.00
2024-02-06T12:24:08.629Z,12.10
2024-02-06T12:26:39.446Z,12.00
2024-02-06T12:29:12.529Z,11.90
2024-02-06T12:31:44.747Z,11.80
2024-02-06T12:34:16.037Z,11.80
2024-02-06T12:36:54.912Z,11.80
2024-02-06T12:39:28.359Z,11.80
2024-02-06T12:42:07.011Z,11.80
2024-02-06T12:44:50.199Z,11.90
2024-02-06T12:47:22.782Z,12.00
2024-02-06T12:49:55.996Z,12.10
2024-02-06T12:52:29.091Z,12.10
2024-02-06T12:55:00.305Z,12.20
2024-02-06T12:57:30.835Z,12.20
2024-02-06T13:00:04.484Z,12.30
2024-02-06T13:02:34.776Z,12.20
2024-02-06T13:05:12.029Z,12.10
2024-02-06T13:07:45.341Z,12.10
2024-02-06T13:10:22.024Z,12.00
2024-02-06T13:12:53.178Z,11.90
2024-02-06T13:15:23.422Z,11.80
2024-02-06T13:17:53.850Z,11.90
2024-02-06T13:20:24.379Z,11.80
2024-02-06T13:22:57.358Z,11.80
2024-02-06T13:25:35.416Z,11.80
2024-02-06T13:28:06.205Z,11.80
2024-02-06T13:30:38.044Z,11.80
2024-02-06T13:33:10.431Z,11.90
2024-02-06T13:35:41.064Z,11.90
2024-02-06T13:38:14.461Z,11.90
2024-02-06T13:40:44.846Z,11.90
2024-02-06T13:43:15.173Z,11.90
2024-02-06T13:45:53.963Z,11.90
2024-02-06T13:48:24.340Z,11.90
2024-02-06T13:50:55.653Z,11.80
2024-02-06T13:53:35.027Z,11.80
2024-02-06T13:56:06.413Z,11.70
2024-02-06T13:58:36.736Z,11.70
2024-02-06T14:01:12.706Z,11.80
2024-02-06T14:03:43.330Z,11.90
2024-02-06T14:06:16.608Z,11.90
2024-02-06T14:08:49.496Z,11.90
2024-02-06T14:11:27.432Z,12.00
2024-02-06T14:13:58.108Z,12.20
2024-02-06T14:16:28.393Z,12.20
2024-02-06T14:19:00.164Z,12.10
2024-02-06T14:21:30.479Z,12.00
2024-02-06T14:24:04.706Z,11.80
2024-02-06T14:26:37.911Z,11.80
2024-02-06T14:29:08.533Z,11.80
2024-02-06T14:31:42.434Z,11.70
2024-02-06T14:34:12.862Z,11.70
2024-02-06T14:36:43.280Z,11.70
2024-02-06T14:39:16.277Z,11.70
2024-02-06T14:41:46.728Z,11.80
2024-02-06T14:44:19.900Z,11.80
2024-02-06T14:46:50.249Z,11.80
2024-02-06T14:49:32.892Z,11.70
2024-02-06T14:52:03.203Z,11.80
2024-02-06T14:54:36.386Z,11.80
2024-02-06T14:57:07.248Z,11.80
2024-02-06T14:59:37.561Z,11.80
2024-02-06T15:02:13.335Z,11.80
2024-02-06T15:04:46.575Z,11.80
2024-02-06T15:07:19.496Z,11.80
2024-02-06T15:09:52.432Z,11.70
2024-02-06T15:12:28.821Z,11.70
2024-02-06T15:14:59.181Z,11.70
2024-02-06T15:17:32.333Z,11.80
2024-02-06T15:20:02.809Z,11.80
2024-02-06T15:22:33.191Z,11.80
2024-02-06T15:25:11.269Z,11.80
2024-02-06T15:27:41.574Z,11.80
2024-02-06T15:30:13.273Z,11.90
2024-02-06T15:32:43.747Z,11.80
2024-02-06T15:35:17.617Z,11.80
2024-02-06T15:37:51.050Z,11.90
2024-02-06T15:40:30.093Z,11.80
2024-02-06T15:43:00.454Z,11.80
2024-02-06T15:45:38.324Z,11.80
2024-02-06T15:48:12.026Z,11.80
2024-02-06T15:50:42.422Z,11.80
2024-02-06T15:53:12.693Z,11.80
2024-02-06T15:55:45.835Z,11.80
2024-02-06T15:58:16.142Z,11.70
2024-02-06T16:00:46.512Z,11.60
2024-02-06T16:03:20.260Z,11.60
2024-02-06T16:05:50.922Z,11.60
2024-02-06T16:08:29.349Z,11.50
2024-02-06T16:11:06.235Z,11.50
2024-02-06T16:13:36.782Z,11.50
2024-02-06T16:16:08.296Z,11.40
2024-02-06T16:18:39.145Z,11.40
2024-02-06T16:21:19.573Z,11.40
2024-02-06T16:23:50.320Z,11.30
2024-02-06T16:26:23.246Z,11.30
2024-02-06T16:28:55.894Z,11.30
2024-02-06T16:31:26.174Z,11.30
2024-02-06T16:33:56.560Z,11.20
2024-02-06T16:36:30.685Z,11.20
2024-02-06T16:39:01.315Z,11.30
2024-02-06T16:41:37.188Z,11.30
2024-02-06T16:44:08.053Z,11.20
2024-02-06T16:46:39.881Z,11.20
2024-02-06T16:49:10.252Z,11.20
2024-02-06T16:51:40.565Z,11.10
2024-02-06T16:54:13.270Z,11.00
2024-02-06T16:56:53.392Z,11.10
2024-02-06T16:59:23.751Z,11.10
2024-02-06T17:01:54.486Z,11.10
2024-02-06T17:04:28.177Z,11.00
2024-02-06T17:06:58.632Z,11.00
2024-02-06T17:09:31.449Z,11.00
2024-02-06T17:12:09.624Z,10.90
2024-02-06T17:14:39.971Z,11.00
2024-02-06T17:17:10.227Z,11.00
2024-02-06T17:19:49.570Z,10.90
2024-02-06T17:22:19.877Z,10.90
2024-02-06T17:24:50.306Z,10.90
2024-02-06T17:27:27.927Z,10.90
2024-02-06T17:29:58.325Z,10.90
2024-02-06T17:32:28.649Z,11.00
2024-02-06T17:34:59.121Z,11.00
2024-02-06T17:37:30.067Z,10.90
2024-02-06T17:40:00.467Z,10.90
2024-02-06T17:42:40.856Z,10.90
2024-02-06T17:45:14.570Z,10.90
2024-02-06T17:47:48.699Z,10.90
2024-02-06T17:50:19.267Z,10.90
2024-02-06T17:52:49.709Z,11.00
2024-02-06T17:55:20.002Z,11.00
2024-02-06T17:57:52.887Z,11.00
2024-02-06T18:00:24.767Z,11.00
2024-02-06T18:02:55.982Z,10.90
2024-02-06T18:05:26.858Z,10.90
2024-02-06T18:07:57.306Z,10.90
2024-02-06T18:10:27.691Z,10.90
2024-02-06T18:13:03.344Z,10.90
2024-02-06T18:15:36.553Z,10.90
2024-02-06T18:18:07.683Z,10.80
2024-02-06T18:20:37.932Z,10.80
2024-02-06T18:23:08.347Z,10.80
2024-02-06T18:25:45.090Z,10.70
2024-02-06T18:28:20.429Z,10.80
2024-02-06T18:30:50.831Z,10.80
2024-02-06T18:33:21.149Z,10.80
2024-02-06T18:35:57.467Z,10.80
2024-02-06T18:38:29.818Z,10.80
2024-02-06T18:41:00.151Z,10.80
2024-02-06T18:43:36.731Z,10.80
2024-02-06T18:46:13.115Z,10.80
2024-02-06T18:48:43.379Z,10.80
2024-02-06T18:51:22.301Z,10.80
2024-02-06T18:53:57.580Z,10.80
2024-02-06T18:56:28.071Z,10.80
2024-02-06T18:59:00.926Z,10.80
2024-02-06T19:01:32.931Z,10.80
2024-02-06T19:04:10.967Z,10.70
2024-02-06T19:06:41.873Z,10.70
2024-02-06T19:09:15.436Z,10.70
2024-02-06T19:11:49.496Z,10.70
2024-02-06T19:14:22.407Z,10.70
2024-02-06T19:16:52.879Z,10.60
2024-02-06T19:19:50.812Z,10.60
2024-02-06T19:22:21.225Z,10.70
2024-02-06T19:24:51.540Z,10.70
2024-02-06T19:27:21.853Z,10.70
2024-02-06T19:29:54.696Z,10.80
2024-02-06T19:32:25.042Z,10.70
2024-02-06T19:34:55.334Z,10.80
2024-02-06T19:37:25.617Z,10.80
2024-02-06T19:40:04.925Z,10.80
2024-02-06T19:42:35.412Z,10.80
2024-02-06T19:45:11.392Z,10.80
2024-02-06T19:47:41.894Z,10.80
2024-02-06T19:50:16.143Z,10.90
2024-02-06T19:52:49.780Z,10.90
2024-02-06T19:55:20.294Z,11.00
2024-02-06T19:57:53.629Z,11.00
2024-02-06T20:00:26.587Z,11.10
2024-02-06T20:02:56.894Z,11.10
2024-02-06T20:05:27.819Z,11.10
2024-02-06T20:07:58.191Z,11.20
2024-02-06T20:10:28.527Z,11.20
2024-02-06T20:12:58.919Z,11.20
2024-02-06T20:15:34.361Z,11.20
2024-02-06T20:18:04.981Z,11.20
2024-02-06T20:20:35.534Z,11.30
2024-02-06T20:23:05.910Z,11.40
2024-02-06T20:25:36.183Z,11.40
2024-02-06T20:28:06.949Z,11.30
2024-02-06T20:30:40.867Z,11.40
2024-02-06T20:33:11.374Z,11.30
2024-02-06T20:35:41.800Z,11.30
2024-02-06T20:38:12.014Z,11.30
2024-02-06T20:40:42.420Z,11.30
2024-02-06T20:43:13.197Z,11.30
2024-02-06T20:45:46.102Z,11.30
2024-02-06T20:48:18.423Z,11.30
2024-02-06T20:50:49.268Z,11.40
2024-02-06T20:53:20.264Z,11.40
2024-02-06T20:55:53.285Z,11.40
2024-02-06T20:58:23.652Z,11.40
2024-02-06T21:00:57.451Z,11.40
2024-02-06T21:03:27.744Z,11.40
2024-02-06T21:05:58.043Z,11.40
2024-02-06T21:08:28.367Z,11.40
2024-02-06T21:10:58.767Z,11.40
2024-02-06T21:13:29.157Z,11.40
2024-02-06T21:16:04.459Z,11.40
2024-02-06T21:18:35.002Z,11.50
2024-02-06T21:21:05.301Z,11.50
2024-02-06T21:23:36.633Z,11.40
2024-02-06T21:26:07.689Z,11.50
2024-02-06T21:28:38.419Z,11.40
2024-02-06T21:31:11.324Z,11.40
2024-02-06T21:33:41.892Z,11.40
2024-02-06T21:36:14.208Z,11.40
2024-02-06T21:38:44.662Z,11.50
2024-02-06T21:41:14.949Z,11.50
2024-02-06T21:43:47.065Z,11.40
2024-02-06T21:46:20.111Z,11.40
2024-02-06T21:48:50.712Z,11.30
2024-02-06T21:51:21.022Z,11.20
2024-02-06T21:53:51.260Z,11.20
2024-02-06T21:56:22.835Z,11.30
2024-02-06T21:58:53.479Z,11.30
2024-02-06T22:01:28.572Z,11.30
2024-02-06T22:04:01.670Z,11.30
2024-02-06T22:06:32.488Z,11.30
2024-02-06T22:09:04.505Z,11.30
2024-02-06T22:11:34.798Z,11.30
2024-02-06T22:14:05.088Z,11.30
2024-02-06T22:16:43.154Z,11.30
2024-02-06T22:19:13.938Z,11.20
2024-02-06T22:21:44.495Z,11.30
2024-02-06T22:24:14.888Z,11.30
2024-02-06T22:26:45.120Z,11.30
2024-02-06T22:29:18.609Z,11.30
2024-02-06T22:31:55.177Z,11.30
2024-02-06T22:34:25.535Z,11.30
2024-02-06T22:36:55.827Z,11.40
2024-02-06T22:39:29.067Z,11.40
2024-02-06T22:42:05.664Z,11.30
2024-02-06T22:44:38.761Z,11.30
2024-02-06T22:47:12.527Z,11.30
2024-02-06T22:49:42.918Z,11.30
2024-02-06T22:52:13.719Z,11.30
2024-02-06T22:54:44.424Z,11.30
2024-02-06T22:57:17.706Z,11.30
2024-02-06T22:59:48.581Z,11.40
2024-02-06T23:02:21.529Z,11.40
2024-02-06T23:04:54.445Z,11.40
2024-02-06T23:07:24.815Z,11.40
2024-02-06T23:09:55.091Z,11.40
2024-02-06T23:12:33.722Z,11.40
2024-02-06T23:15:05.060Z,11.40
2024-02-06T23:17:38.088Z,11.40
2024-02-06T23:20:11.989Z,11.40
2024-02-06T23:22:43.149Z,11.40
2024-02-06T23:25:14.023Z,11.50
2024-02-06T23:27:45.688Z,11.50
2024-02-06T23:30:18.215Z,11.40
2024-02-06T23:32:51.057Z,11.40
2024-02-06T23:35:21.624Z,11.30
2024-02-06T23:37:55.038Z,11.30
2024-02-06T23:40:25.356Z,11.30
2024-02-06T23:42:58.483Z,11.30
2024-02-06T23:45:28.860Z,11.30
2024-02-06T23:48:04.366Z,11.30
2024-02-06T23:50:34.838Z,11.20
2024-02-06T23:53:08.212Z,11.30
2024-02-06T23:55:38.524Z,11.20
2024-02-06T23:58:11.635Z,11.20
